Daviston, Alabama
Current Conditions -  °F | °C
As of 5:15 AM on Tuesday 21 Oct 2014 (Local Time) from KALX Reporting Station
Clear Clear  
Wind Chill: 49°   Ceiling: Unl
Heat Index: 49°   Visibility: 10mi
Dew Point: 47°   Wind: 0mph
Humidity: 95%   Direction: NA
Pressure: 30.03"   Gusts: NA
Location:  33.05°N, 85.64°W
Report Text: KALX 211015Z AUTO 00000KT 10SM CLR 09/09 A3003 RMK AO2 T00920085
Loading
Personal Weather Stations






























Interactive Weather Map
Tropical Storm Tracking
New forecast layout! Learn more

10-Day Weather Forecast

Advertisements
Track Severe Weather on mobile